sensor_id;sensor_type;location;lat;lon;timestamp;pressure;altitude;pressure_sealevel;temperature
80246;BMP280;69558;39.208;-77.226;2023-12-22T00:00:14;101503.03;;;16.97
80246;BMP280;69558;39.208;-77.226;2023-12-22T00:02:39;101505.66;;;16.97
80246;BMP280;69558;39.208;-77.226;2023-12-22T00:05:06;101506.78;;;16.95
80246;BMP280;69558;39.208;-77.226;2023-12-22T00:07:32;101504.31;;;16.93
80246;BMP280;69558;39.208;-77.226;2023-12-22T00:09:58;101506.94;;;16.93
80246;BMP280;69558;39.208;-77.226;2023-12-22T00:12:24;101516.88;;;16.90
80246;BMP280;69558;39.208;-77.226;2023-12-22T00:14:50;101520.88;;;16.94
80246;BMP280;69558;39.208;-77.226;2023-12-22T00:17:16;101516.75;;;16.91
80246;BMP280;69558;39.208;-77.226;2023-12-22T00:19:41;101513.59;;;16.88
80246;BMP280;69558;39.208;-77.226;2023-12-22T00:22:08;101516.06;;;16.89
80246;BMP280;69558;39.208;-77.226;2023-12-22T00:24:34;101514.81;;;16.83
80246;BMP280;69558;39.208;-77.226;2023-12-22T00:27:00;101503.94;;;16.78
80246;BMP280;69558;39.208;-77.226;2023-12-22T00:29:26;101512.63;;;16.79
80246;BMP280;69558;39.208;-77.226;2023-12-22T00:31:54;101507.69;;;16.76
80246;BMP280;69558;39.208;-77.226;2023-12-22T00:34:22;101508.53;;;16.76
80246;BMP280;69558;39.208;-77.226;2023-12-22T00:36:48;101518.72;;;16.79
80246;BMP280;69558;39.208;-77.226;2023-12-22T00:39:15;101522.47;;;16.77
80246;BMP280;69558;39.208;-77.226;2023-12-22T00:41:41;101523.09;;;16.79
80246;BMP280;69558;39.208;-77.226;2023-12-22T00:44:07;101522.03;;;16.81
80246;BMP280;69558;39.208;-77.226;2023-12-22T00:46:33;101519.41;;;16.81
80246;BMP280;69558;39.208;-77.226;2023-12-22T00:48:59;101515.00;;;16.82
80246;BMP280;69558;39.208;-77.226;2023-12-22T00:51:25;101518.44;;;16.82
80246;BMP280;69558;39.208;-77.226;2023-12-22T00:53:51;101510.72;;;16.81
80246;BMP280;69558;39.208;-77.226;2023-12-22T00:56:17;101523.50;;;16.84
80246;BMP280;69558;39.208;-77.226;2023-12-22T00:58:43;101518.25;;;16.84
80246;BMP280;69558;39.208;-77.226;2023-12-22T01:01:09;101497.34;;;16.74
80246;BMP280;69558;39.208;-77.226;2023-12-22T01:03:35;101516.50;;;16.84
80246;BMP280;69558;39.208;-77.226;2023-12-22T01:06:02;101518.16;;;16.85
80246;BMP280;69558;39.208;-77.226;2023-12-22T01:08:29;101511.63;;;16.90
80246;BMP280;69558;39.208;-77.226;2023-12-22T01:10:55;101509.97;;;16.89
80246;BMP280;69558;39.208;-77.226;2023-12-22T01:13:21;101511.50;;;16.91
80246;BMP280;69558;39.208;-77.226;2023-12-22T01:15:46;101505.28;;;16.92
80246;BMP280;69558;39.208;-77.226;2023-12-22T01:18:12;101501.59;;;16.85
80246;BMP280;69558;39.208;-77.226;2023-12-22T01:20:38;101511.34;;;16.93
80246;BMP280;69558;39.208;-77.226;2023-12-22T01:23:04;101514.78;;;16.93
80246;BMP280;69558;39.208;-77.226;2023-12-22T01:25:30;101512.19;;;16.93
80246;BMP280;69558;39.208;-77.226;2023-12-22T01:27:56;101497.03;;;16.87
80246;BMP280;69558;39.208;-77.226;2023-12-22T01:30:22;101510.13;;;16.87
80246;BMP280;69558;39.208;-77.226;2023-12-22T01:32:48;101505.03;;;16.85
80246;BMP280;69558;39.208;-77.226;2023-12-22T01:35:13;101512.75;;;16.87
80246;BMP280;69558;39.208;-77.226;2023-12-22T01:37:39;101496.25;;;16.77
80246;BMP280;69558;39.208;-77.226;2023-12-22T01:40:06;101511.25;;;16.84
80246;BMP280;69558;39.208;-77.226;2023-12-22T01:42:32;101512.38;;;16.82
80246;BMP280;69558;39.208;-77.226;2023-12-22T01:44:58;101514.81;;;16.83
80246;BMP280;69558;39.208;-77.226;2023-12-22T01:47:25;101511.53;;;16.81
80246;BMP280;69558;39.208;-77.226;2023-12-22T01:49:51;101511.53;;;16.81
80246;BMP280;69558;39.208;-77.226;2023-12-22T01:52:19;101509.88;;;16.80
80246;BMP280;69558;39.208;-77.226;2023-12-22T01:54:45;101510.56;;;16.82
80246;BMP280;69558;39.208;-77.226;2023-12-22T01:57:13;101504.75;;;16.79
80246;BMP280;69558;39.208;-77.226;2023-12-22T01:59:43;101497.34;;;16.74
80246;BMP280;69558;39.208;-77.226;2023-12-22T02:02:09;101503.44;;;16.75
80246;BMP280;69558;39.208;-77.226;2023-12-22T02:04:35;101505.19;;;16.74
80246;BMP280;69558;39.208;-77.226;2023-12-22T02:07:02;101511.97;;;16.77
80246;BMP280;69558;39.208;-77.226;2023-12-22T02:09:29;101507.38;;;16.79
80246;BMP280;69558;39.208;-77.226;2023-12-22T02:11:58;101502.84;;;16.81
80246;BMP280;69558;39.208;-77.226;2023-12-22T02:14:24;101502.72;;;16.82
80246;BMP280;69558;39.208;-77.226;2023-12-22T02:19:45;101492.75;;;16.86
80246;BMP280;69558;39.208;-77.226;2023-12-22T02:22:12;101502.28;;;16.87
80246;BMP280;69558;39.208;-77.226;2023-12-22T02:24:39;101507.34;;;16.89
80246;BMP280;69558;39.208;-77.226;2023-12-22T02:30:08;101510.28;;;16.85
80246;BMP280;69558;39.208;-77.226;2023-12-22T02:32:34;101514.00;;;16.83
80246;BMP280;69558;39.208;-77.226;2023-12-22T02:35:03;101515.81;;;16.82
80246;BMP280;69558;39.208;-77.226;2023-12-22T02:37:31;101515.97;;;16.81
80246;BMP280;69558;39.208;-77.226;2023-12-22T02:39:58;101523.69;;;16.82
80246;BMP280;69558;39.208;-77.226;2023-12-22T02:42:26;101514.16;;;16.81
80246;BMP280;69558;39.208;-77.226;2023-12-22T02:44:57;101522.84;;;16.82
80246;BMP280;69558;39.208;-77.226;2023-12-22T02:47:24;101526.59;;;16.79
80246;BMP280;69558;39.208;-77.226;2023-12-22T02:49:50;101520.09;;;16.74
80246;BMP280;69558;39.208;-77.226;2023-12-22T02:52:16;101530.84;;;16.80
80246;BMP280;69558;39.208;-77.226;2023-12-22T02:54:42;101527.53;;;16.78
80246;BMP280;69558;39.208;-77.226;2023-12-22T02:57:08;101529.88;;;16.81
80246;BMP280;69558;39.208;-77.226;2023-12-22T02:59:34;101528.34;;;16.79
80246;BMP280;69558;39.208;-77.226;2023-12-22T03:02:00;101531.28;;;16.76
80246;BMP280;69558;39.208;-77.226;2023-12-22T03:04:26;101536.63;;;16.74
80246;BMP280;69558;39.208;-77.226;2023-12-22T03:06:52;101544.25;;;16.77
80246;BMP280;69558;39.208;-77.226;2023-12-22T03:09:18;101533.91;;;16.76
80246;BMP280;69558;39.208;-77.226;2023-12-22T03:11:43;101540.81;;;16.77
80246;BMP280;69558;39.208;-77.226;2023-12-22T03:14:09;101534.59;;;16.78
80246;BMP280;69558;39.208;-77.226;2023-12-22T03:16:36;101544.94;;;16.79
80246;BMP280;69558;39.208;-77.226;2023-12-22T03:19:01;101543.00;;;16.81
80246;BMP280;69558;39.208;-77.226;2023-12-22T03:21:28;101544.63;;;16.82
80246;BMP280;69558;39.208;-77.226;2023-12-22T03:23:54;101548.22;;;16.81
80246;BMP280;69558;39.208;-77.226;2023-12-22T03:26:20;101543.97;;;16.80
80246;BMP280;69558;39.208;-77.226;2023-12-22T03:28:46;101543.81;;;16.82
80246;BMP280;69558;39.208;-77.226;2023-12-22T03:31:12;101536.78;;;16.82
80246;BMP280;69558;39.208;-77.226;2023-12-22T03:33:37;101535.94;;;16.82
80246;BMP280;69558;39.208;-77.226;2023-12-22T03:36:03;101535.94;;;16.82
80246;BMP280;69558;39.208;-77.226;2023-12-22T03:38:29;101539.41;;;16.82
80246;BMP280;69558;39.208;-77.226;2023-12-22T03:40:55;101540.50;;;16.80
80246;BMP280;69558;39.208;-77.226;2023-12-22T03:43:21;101529.50;;;16.76
80246;BMP280;69558;39.208;-77.226;2023-12-22T03:45:47;101540.63;;;16.78
80246;BMP280;69558;39.208;-77.226;2023-12-22T03:48:12;101530.56;;;16.74
80246;BMP280;69558;39.208;-77.226;2023-12-22T03:50:38;101532.75;;;16.78
80246;BMP280;69558;39.208;-77.226;2023-12-22T03:53:04;101527.69;;;16.77
80246;BMP280;69558;39.208;-77.226;2023-12-22T03:55:30;101534.03;;;16.74
80246;BMP280;69558;39.208;-77.226;2023-12-22T03:57:56;101536.81;;;16.73
80246;BMP280;69558;39.208;-77.226;2023-12-22T04:00:22;101537.94;;;16.70
80246;BMP280;69558;39.208;-77.226;2023-12-22T04:02:48;101533.38;;;16.72
80246;BMP280;69558;39.208;-77.226;2023-12-22T04:05:13;101535.16;;;16.72
80246;BMP280;69558;39.208;-77.226;2023-12-22T04:07:39;101528.38;;;16.69
80246;BMP280;69558;39.208;-77.226;2023-12-22T04:10:06;101528.97;;;16.73
80246;BMP280;69558;39.208;-77.226;2023-12-22T04:12:32;101528.13;;;16.72
80246;BMP280;69558;39.208;-77.226;2023-12-22T04:14:58;101514.19;;;16.72
80246;BMP280;69558;39.208;-77.226;2023-12-22T04:17:24;101520.91;;;16.74
80246;BMP280;69558;39.208;-77.226;2023-12-22T04:19:50;101524.41;;;16.75
80246;BMP280;69558;39.208;-77.226;2023-12-22T04:22:16;101522.72;;;16.74
80246;BMP280;69558;39.208;-77.226;2023-12-22T04:24:42;101521.50;;;16.78
80246;BMP280;69558;39.208;-77.226;2023-12-22T04:27:07;101527.41;;;16.80
80246;BMP280;69558;39.208;-77.226;2023-12-22T04:29:33;101514.31;;;16.80
80246;BMP280;69558;39.208;-77.226;2023-12-22T04:31:59;101515.25;;;16.79
80246;BMP280;69558;39.208;-77.226;2023-12-22T04:34:25;101517.88;;;16.79
80246;BMP280;69558;39.208;-77.226;2023-12-22T04:36:51;101532.75;;;16.78
80246;BMP280;69558;39.208;-77.226;2023-12-22T04:39:17;101527.41;;;16.80
80246;BMP280;69558;39.208;-77.226;2023-12-22T04:41:43;101524.91;;;16.78
80246;BMP280;69558;39.208;-77.226;2023-12-22T04:44:09;101529.34;;;16.78
80246;BMP280;69558;39.208;-77.226;2023-12-22T04:46:34;101527.25;;;16.81
80246;BMP280;69558;39.208;-77.226;2023-12-22T04:49:00;101522.28;;;16.78
80246;BMP280;69558;39.208;-77.226;2023-12-22T04:51:27;101513.78;;;16.76
80246;BMP280;69558;39.208;-77.226;2023-12-22T04:53:53;101514.41;;;16.78
80246;BMP280;69558;39.208;-77.226;2023-12-22T04:56:19;101513.22;;;16.73
80246;BMP280;69558;39.208;-77.226;2023-12-22T04:58:46;101507.16;;;16.72
80246;BMP280;69558;39.208;-77.226;2023-12-22T05:01:11;101506.34;;;16.72
80246;BMP280;69558;39.208;-77.226;2023-12-22T05:03:37;101500.13;;;16.73
80246;BMP280;69558;39.208;-77.226;2023-12-22T05:06:03;101504.38;;;16.74
80246;BMP280;69558;39.208;-77.226;2023-12-22T05:08:29;101501.63;;;16.75
80246;BMP280;69558;39.208;-77.226;2023-12-22T05:10:55;101505.75;;;16.78
80246;BMP280;69558;39.208;-77.226;2023-12-22T05:13:21;101504.75;;;16.79
80246;BMP280;69558;39.208;-77.226;2023-12-22T05:15:47;101510.84;;;16.79
80246;BMP280;69558;39.208;-77.226;2023-12-22T05:18:13;101505.47;;;16.81
80246;BMP280;69558;39.208;-77.226;2023-12-22T05:20:39;101515.97;;;16.81
80246;BMP280;69558;39.208;-77.226;2023-12-22T05:23:05;101518.44;;;16.82
80246;BMP280;69558;39.208;-77.226;2023-12-22T05:25:31;101516.50;;;16.84
80246;BMP280;69558;39.208;-77.226;2023-12-22T05:27:57;101506.94;;;16.83
80246;BMP280;69558;39.208;-77.226;2023-12-22T05:30:23;101503.53;;;16.83
80246;BMP280;69558;39.208;-77.226;2023-12-22T05:32:49;101503.53;;;16.83
80246;BMP280;69558;39.208;-77.226;2023-12-22T05:35:15;101497.47;;;16.82
80246;BMP280;69558;39.208;-77.226;2023-12-22T05:37:46;101501.59;;;16.85
80246;BMP280;69558;39.208;-77.226;2023-12-22T05:40:13;101495.66;;;16.83
80246;BMP280;69558;39.208;-77.226;2023-12-22T05:42:39;101484.19;;;16.84
80246;BMP280;69558;39.208;-77.226;2023-12-22T05:45:05;101485.19;;;16.83
80246;BMP280;69558;39.208;-77.226;2023-12-22T05:47:32;101479.81;;;16.84
80246;BMP280;69558;39.208;-77.226;2023-12-22T05:49:58;101474.69;;;16.83
80246;BMP280;69558;39.208;-77.226;2023-12-22T05:52:25;101473.88;;;16.82
80246;BMP280;69558;39.208;-77.226;2023-12-22T05:54:51;101468.78;;;16.81
80246;BMP280;69558;39.208;-77.226;2023-12-22T05:57:17;101465.19;;;16.82
80246;BMP280;69558;39.208;-77.226;2023-12-22T05:59:43;101467.97;;;16.80
80246;BMP280;69558;39.208;-77.226;2023-12-22T06:02:08;101456.75;;;16.78
80246;BMP280;69558;39.208;-77.226;2023-12-22T06:04:34;101454.03;;;16.80
80246;BMP280;69558;39.208;-77.226;2023-12-22T06:07:00;101444.00;;;16.75
80246;BMP280;69558;39.208;-77.226;2023-12-22T06:09:26;101444.09;;;16.74
80246;BMP280;69558;39.208;-77.226;2023-12-22T06:11:53;101449.53;;;16.72
80246;BMP280;69558;39.208;-77.226;2023-12-22T06:14:19;101444.28;;;16.72
80246;BMP280;69558;39.208;-77.226;2023-12-22T06:16:45;101449.34;;;16.74
80246;BMP280;69558;39.208;-77.226;2023-12-22T06:19:10;101454.47;;;16.75
80246;BMP280;69558;39.208;-77.226;2023-12-22T06:21:39;101456.38;;;16.73
80246;BMP280;69558;39.208;-77.226;2023-12-22T06:24:05;101461.34;;;16.76
80246;BMP280;69558;39.208;-77.226;2023-12-22T06:26:31;101462.19;;;16.77
80246;BMP280;69558;39.208;-77.226;2023-12-22T06:28:57;101452.78;;;16.74
80246;BMP280;69558;39.208;-77.226;2023-12-22T06:31:24;101468.06;;;16.79
80246;BMP280;69558;39.208;-77.226;2023-12-22T06:33:51;101463.53;;;16.81
80246;BMP280;69558;39.208;-77.226;2023-12-22T06:36:20;101464.38;;;16.81
80246;BMP280;69558;39.208;-77.226;2023-12-22T06:38:53;101465.00;;;16.83
80246;BMP280;69558;39.208;-77.226;2023-12-22T06:41:25;101466.00;;;16.82
80246;BMP280;69558;39.208;-77.226;2023-12-22T06:43:51;101454.84;;;16.80
80246;BMP280;69558;39.208;-77.226;2023-12-22T06:46:18;101459.28;;;16.80
80246;BMP280;69558;39.208;-77.226;2023-12-22T06:48:44;101468.78;;;16.81
80246;BMP280;69558;39.208;-77.226;2023-12-22T06:51:25;101465.19;;;16.82
80246;BMP280;69558;39.208;-77.226;2023-12-22T06:53:56;101461.22;;;16.78
80246;BMP280;69558;39.208;-77.226;2023-12-22T06:56:33;101466.84;;;16.83
80246;BMP280;69558;39.208;-77.226;2023-12-22T06:58:59;101470.19;;;16.75
80246;BMP280;69558;39.208;-77.226;2023-12-22T07:01:27;101464.81;;;16.77
80246;BMP280;69558;39.208;-77.226;2023-12-22T07:03:54;101458.22;;;16.73
80246;BMP280;69558;39.208;-77.226;2023-12-22T07:06:22;101470.88;;;16.77
80246;BMP280;69558;39.208;-77.226;2023-12-22T07:11:44;101472.00;;;16.75
80246;BMP280;69558;39.208;-77.226;2023-12-22T07:14:11;101470.31;;;16.74
80246;BMP280;69558;39.208;-77.226;2023-12-22T07:16:37;101473.31;;;16.79
80246;BMP280;69558;39.208;-77.226;2023-12-22T07:19:04;101472.50;;;16.78
80246;BMP280;69558;39.208;-77.226;2023-12-22T07:21:30;101475.81;;;16.80
80246;BMP280;69558;39.208;-77.226;2023-12-22T07:23:56;101478.28;;;16.82
80246;BMP280;69558;39.208;-77.226;2023-12-22T07:26:24;101480.09;;;16.81
80246;BMP280;69558;39.208;-77.226;2023-12-22T07:28:52;101471.41;;;16.81
80246;BMP280;69558;39.208;-77.226;2023-12-22T07:31:18;101482.41;;;16.84
80246;BMP280;69558;39.208;-77.226;2023-12-22T07:33:44;101478.94;;;16.84
80246;BMP280;69558;39.208;-77.226;2023-12-22T07:36:10;101472.75;;;16.85
80246;BMP280;69558;39.208;-77.226;2023-12-22T07:38:37;101477.19;;;16.84
80246;BMP280;69558;39.208;-77.226;2023-12-22T07:41:04;101478.94;;;16.84
80246;BMP280;69558;39.208;-77.226;2023-12-22T07:43:30;101473.06;;;16.82
80246;BMP280;69558;39.208;-77.226;2023-12-22T07:45:56;101478.44;;;16.80
80246;BMP280;69558;39.208;-77.226;2023-12-22T07:48:22;101474.03;;;16.81
80246;BMP280;69558;39.208;-77.226;2023-12-22T07:50:49;101473.31;;;16.79
80246;BMP280;69558;39.208;-77.226;2023-12-22T07:53:16;101465.34;;;16.80
80246;BMP280;69558;39.208;-77.226;2023-12-22T07:55:43;101462.19;;;16.77
80246;BMP280;69558;39.208;-77.226;2023-12-22T07:58:09;101459.56;;;16.77
80246;BMP280;69558;39.208;-77.226;2023-12-22T08:00:36;101464.94;;;16.75
80246;BMP280;69558;39.208;-77.226;2023-12-22T08:03:02;101457.91;;;16.76
80246;BMP280;69558;39.208;-77.226;2023-12-22T08:05:28;101465.63;;;16.77
80246;BMP280;69558;39.208;-77.226;2023-12-22T08:07:56;101466.47;;;16.78
80246;BMP280;69558;39.208;-77.226;2023-12-22T08:10:21;101460.22;;;16.79
80246;BMP280;69558;39.208;-77.226;2023-12-22T08:12:47;101461.06;;;16.79
80246;BMP280;69558;39.208;-77.226;2023-12-22T08:15:13;101453.88;;;16.81
80246;BMP280;69558;39.208;-77.226;2023-12-22T08:17:49;101451.13;;;16.83
80246;BMP280;69558;39.208;-77.226;2023-12-22T08:20:19;101454.41;;;16.85
80246;BMP280;69558;39.208;-77.226;2023-12-22T08:22:49;101461.44;;;16.84
80246;BMP280;69558;39.208;-77.226;2023-12-22T08:25:15;101459.66;;;16.85
80246;BMP280;69558;39.208;-77.226;2023-12-22T08:27:42;101456.22;;;16.84
80246;BMP280;69558;39.208;-77.226;2023-12-22T08:30:09;101456.06;;;16.86
80246;BMP280;69558;39.208;-77.226;2023-12-22T08:32:35;101441.81;;;16.89
80246;BMP280;69558;39.208;-77.226;2023-12-22T08:35:02;101447.06;;;16.89
80246;BMP280;69558;39.208;-77.226;2023-12-22T08:37:29;101441.16;;;16.87
80246;BMP280;69558;39.208;-77.226;2023-12-22T08:39:55;101451.66;;;16.87
80246;BMP280;69558;39.208;-77.226;2023-12-22T08:42:21;101444.75;;;16.85
80246;BMP280;69558;39.208;-77.226;2023-12-22T08:44:50;101448.34;;;16.84
80246;BMP280;69558;39.208;-77.226;2023-12-22T08:47:16;101441.59;;;16.82
80246;BMP280;69558;39.208;-77.226;2023-12-22T08:49:42;101439.00;;;16.82
80246;BMP280;69558;39.208;-77.226;2023-12-22T08:52:08;101442.56;;;16.81
80246;BMP280;69558;39.208;-77.226;2023-12-22T08:54:34;101437.34;;;16.81
80246;BMP280;69558;39.208;-77.226;2023-12-22T08:57:03;101441.88;;;16.79
80246;BMP280;69558;39.208;-77.226;2023-12-22T08:59:29;101430.75;;;16.77
80246;BMP280;69558;39.208;-77.226;2023-12-22T09:01:55;101422.63;;;16.70
80246;BMP280;69558;39.208;-77.226;2023-12-22T09:04:21;101432.38;;;16.78
80246;BMP280;69558;39.208;-77.226;2023-12-22T09:06:49;101430.88;;;16.75
80246;BMP280;69558;39.208;-77.226;2023-12-22T09:09:15;101437.06;;;16.74
80246;BMP280;69558;39.208;-77.226;2023-12-22T09:11:41;101443.03;;;16.76
80246;BMP280;69558;39.208;-77.226;2023-12-22T09:14:07;101436.94;;;16.76
80246;BMP280;69558;39.208;-77.226;2023-12-22T09:16:36;101412.22;;;16.61
80246;BMP280;69558;39.208;-77.226;2023-12-22T09:19:03;101436.63;;;16.79
80246;BMP280;69558;39.208;-77.226;2023-12-22T09:21:29;101432.25;;;16.79
80246;BMP280;69558;39.208;-77.226;2023-12-22T09:23:54;101433.88;;;16.80
80246;BMP280;69558;39.208;-77.226;2023-12-22T09:26:21;101431.13;;;16.82
80246;BMP280;69558;39.208;-77.226;2023-12-22T09:28:47;101432.91;;;16.81
80246;BMP280;69558;39.208;-77.226;2023-12-22T09:31:13;101439.81;;;16.82
80246;BMP280;69558;39.208;-77.226;2023-12-22T09:33:40;101434.56;;;16.82
80246;BMP280;69558;39.208;-77.226;2023-12-22T09:36:07;101438.16;;;16.81
80246;BMP280;69558;39.208;-77.226;2023-12-22T09:38:33;101443.94;;;16.85
80246;BMP280;69558;39.208;-77.226;2023-12-22T09:41:00;101444.06;;;16.83
80246;BMP280;69558;39.208;-77.226;2023-12-22T09:43:26;101441.44;;;16.83
80246;BMP280;69558;39.208;-77.226;2023-12-22T09:45:52;101439.00;;;16.82
80246;BMP280;69558;39.208;-77.226;2023-12-22T09:48:18;101440.63;;;16.83
80246;BMP280;69558;39.208;-77.226;2023-12-22T09:50:52;101445.88;;;16.83
80246;BMP280;69558;39.208;-77.226;2023-12-22T09:53:20;101437.19;;;16.82
80246;BMP280;69558;39.208;-77.226;2023-12-22T09:55:47;101436.94;;;16.76
80246;BMP280;69558;39.208;-77.226;2023-12-22T09:58:14;101438.22;;;16.72
80246;BMP280;69558;39.208;-77.226;2023-12-22T10:00:43;101439.56;;;16.76
80246;BMP280;69558;39.208;-77.226;2023-12-22T10:03:10;101447.97;;;16.79
80246;BMP280;69558;39.208;-77.226;2023-12-22T10:05:41;101447.09;;;16.79
80246;BMP280;69558;39.208;-77.226;2023-12-22T10:08:09;101443.03;;;16.76
80246;BMP280;69558;39.208;-77.226;2023-12-22T10:10:41;101453.34;;;16.78
80246;BMP280;69558;39.208;-77.226;2023-12-22T10:13:08;101447.56;;;16.74
80246;BMP280;69558;39.208;-77.226;2023-12-22T10:15:41;101445.50;;;16.78
80246;BMP280;69558;39.208;-77.226;2023-12-22T10:18:09;101443.16;;;16.75
80246;BMP280;69558;39.208;-77.226;2023-12-22T10:20:35;101446.03;;;16.81
80246;BMP280;69558;39.208;-77.226;2023-12-22T10:23:02;101449.63;;;16.80
80246;BMP280;69558;39.208;-77.226;2023-12-22T10:25:29;101447.69;;;16.82
80246;BMP280;69558;39.208;-77.226;2023-12-22T10:27:55;101446.66;;;16.83
80246;BMP280;69558;39.208;-77.226;2023-12-22T10:30:22;101448.50;;;16.83
80246;BMP280;69558;39.208;-77.226;2023-12-22T10:32:53;101452.91;;;16.82
80246;BMP280;69558;39.208;-77.226;2023-12-22T10:35:22;101451.13;;;16.83
80246;BMP280;69558;39.208;-77.226;2023-12-22T10:37:48;101459.66;;;16.85
80246;BMP280;69558;39.208;-77.226;2023-12-22T10:40:18;101454.41;;;16.85
80246;BMP280;69558;39.208;-77.226;2023-12-22T10:42:44;101454.41;;;16.85
80246;BMP280;69558;39.208;-77.226;2023-12-22T10:45:10;101460.47;;;16.85
80246;BMP280;69558;39.208;-77.226;2023-12-22T10:47:38;101459.66;;;16.85
80246;BMP280;69558;39.208;-77.226;2023-12-22T10:50:05;101459.66;;;16.85
80246;BMP280;69558;39.208;-77.226;2023-12-22T10:52:31;101461.59;;;16.83
80246;BMP280;69558;39.208;-77.226;2023-12-22T10:54:58;101469.47;;;16.83
80246;BMP280;69558;39.208;-77.226;2023-12-22T10:57:24;101475.81;;;16.80
80246;BMP280;69558;39.208;-77.226;2023-12-22T10:59:52;101479.41;;;16.79
80246;BMP280;69558;39.208;-77.226;2023-12-22T11:02:19;101476.94;;;16.78
80246;BMP280;69558;39.208;-77.226;2023-12-22T11:07:23;101490.31;;;16.75
80246;BMP280;69558;39.208;-77.226;2023-12-22T11:09:51;101489.66;;;16.73
80246;BMP280;69558;39.208;-77.226;2023-12-22T11:12:21;101492.41;;;16.71
80246;BMP280;69558;39.208;-77.226;2023-12-22T11:14:47;101503.72;;;16.72
80246;BMP280;69558;39.208;-77.226;2023-12-22T11:17:26;101499.97;;;16.74
80246;BMP280;69558;39.208;-77.226;2023-12-22T11:19:56;101503.88;;;16.70
80246;BMP280;69558;39.208;-77.226;2023-12-22T11:22:22;101508.13;;;16.71
80246;BMP280;69558;39.208;-77.226;2023-12-22T11:24:49;101508.13;;;16.71
80246;BMP280;69558;39.208;-77.226;2023-12-22T11:27:19;101517.66;;;16.72
80246;BMP280;69558;39.208;-77.226;2023-12-22T11:29:50;101510.75;;;16.71
80246;BMP280;69558;39.208;-77.226;2023-12-22T11:32:18;101505.38;;;16.73
80246;BMP280;69558;39.208;-77.226;2023-12-22T11:34:47;101513.22;;;16.73
80246;BMP280;69558;39.208;-77.226;2023-12-22T11:37:14;101519.16;;;16.75
80246;BMP280;69558;39.208;-77.226;2023-12-22T11:39:43;101519.84;;;16.77
80246;BMP280;69558;39.208;-77.226;2023-12-22T11:42:14;101520.66;;;16.77
80246;BMP280;69558;39.208;-77.226;2023-12-22T11:44:41;101517.03;;;16.78
80246;BMP280;69558;39.208;-77.226;2023-12-22T11:47:08;101523.00;;;16.80
80246;BMP280;69558;39.208;-77.226;2023-12-22T11:49:36;101526.28;;;16.82
80246;BMP280;69558;39.208;-77.226;2023-12-22T11:52:16;101518.25;;;16.84
80246;BMP280;69558;39.208;-77.226;2023-12-22T11:57:34;101524.34;;;16.84
80246;BMP280;69558;39.208;-77.226;2023-12-22T12:02:55;101532.38;;;16.83
80246;BMP280;69558;39.208;-77.226;2023-12-22T12:05:20;101535.94;;;16.82
80246;BMP280;69558;39.208;-77.226;2023-12-22T12:07:47;101534.97;;;16.83
80246;BMP280;69558;39.208;-77.226;2023-12-22T12:13:12;101539.69;;;16.79
80246;BMP280;69558;39.208;-77.226;2023-12-22T12:15:41;101536.22;;;16.79
80246;BMP280;69558;39.208;-77.226;2023-12-22T12:18:09;101535.28;;;16.80
80246;BMP280;69558;39.208;-77.226;2023-12-22T12:20:35;101543.41;;;16.77
80246;BMP280;69558;39.208;-77.226;2023-12-22T12:23:02;101539.16;;;16.76
80246;BMP280;69558;39.208;-77.226;2023-12-22T12:25:29;101541.88;;;16.74
80246;BMP280;69558;39.208;-77.226;2023-12-22T12:28:05;101532.81;;;16.69
80246;BMP280;69558;39.208;-77.226;2023-12-22T12:30:32;101542.19;;;16.71
80246;BMP280;69558;39.208;-77.226;2023-12-22T12:32:59;101523.91;;;16.62
80246;BMP280;69558;39.208;-77.226;2023-12-22T12:35:32;101541.66;;;16.68
80246;BMP280;69558;39.208;-77.226;2023-12-22T12:37:59;101549.25;;;16.71
80246;BMP280;69558;39.208;-77.226;2023-12-22T12:40:28;101541.81;;;16.66
80246;BMP280;69558;39.208;-77.226;2023-12-22T12:42:59;101556.56;;;16.67
80246;BMP280;69558;39.208;-77.226;2023-12-22T12:45:26;101557.38;;;16.68
80246;BMP280;69558;39.208;-77.226;2023-12-22T12:48:02;101546.91;;;16.68
80246;BMP280;69558;39.208;-77.226;2023-12-22T12:50:29;101541.91;;;16.65
80246;BMP280;69558;39.208;-77.226;2023-12-22T12:52:56;101546.22;;;16.66
80246;BMP280;69558;39.208;-77.226;2023-12-22T12:55:24;101546.06;;;16.67
80246;BMP280;69558;39.208;-77.226;2023-12-22T12:57:54;101553.94;;;16.67
80246;BMP280;69558;39.208;-77.226;2023-12-22T13:00:28;101562.44;;;16.69
80246;BMP280;69558;39.208;-77.226;2023-12-22T13:02:56;101546.06;;;16.58
80246;BMP280;69558;39.208;-77.226;2023-12-22T13:05:23;101562.44;;;16.69
80246;BMP280;69558;39.208;-77.226;2023-12-22T13:07:49;101557.38;;;16.68
80246;BMP280;69558;39.208;-77.226;2023-12-22T13:10:22;101564.81;;;16.72
80246;BMP280;69558;39.208;-77.226;2023-12-22T13:12:51;101569.22;;;16.72
80246;BMP280;69558;39.208;-77.226;2023-12-22T13:15:20;101566.44;;;16.73
80246;BMP280;69558;39.208;-77.226;2023-12-22T13:17:49;101569.88;;;16.74
80246;BMP280;69558;39.208;-77.226;2023-12-22T13:20:15;101575.28;;;16.72
80246;BMP280;69558;39.208;-77.226;2023-12-22T13:22:41;101576.91;;;16.73
80246;BMP280;69558;39.208;-77.226;2023-12-22T13:25:07;101582.03;;;16.75
80246;BMP280;69558;39.208;-77.226;2023-12-22T13:27:54;101576.53;;;16.78
80246;BMP280;69558;39.208;-77.226;2023-12-22T13:30:37;101566.75;;;16.70
80246;BMP280;69558;39.208;-77.226;2023-12-22T13:33:06;101581.91;;;16.76
80246;BMP280;69558;39.208;-77.226;2023-12-22T13:35:33;101582.72;;;16.77
80246;BMP280;69558;39.208;-77.226;2023-12-22T13:38:08;101580.75;;;16.79
80246;BMP280;69558;39.208;-77.226;2023-12-22T13:40:34;101587.78;;;16.78
80246;BMP280;69558;39.208;-77.226;2023-12-22T13:43:01;101588.63;;;16.79
80246;BMP280;69558;39.208;-77.226;2023-12-22T13:45:28;101585.19;;;16.78
80246;BMP280;69558;39.208;-77.226;2023-12-22T13:47:55;101586.31;;;16.76
80246;BMP280;69558;39.208;-77.226;2023-12-22T13:50:21;101600.38;;;16.75